Time;durP1;ratioP1;P1;durP2;ratioP2;P2;SDS_P1;SDS_P2;PMS_P1;PMS_P2;Temp;Humidity;BMP_temperature;BMP_pressure;BME280_temperature;BME280_humidity;BME280_pressure;Samples;Min_cycle;Max_cycle;Signal;HPM_P1;HPM_P2
2022/10/11 00:00:11;;;;;;;1.33;0.60;;;;;;;11.78;100.00;99850.09;1665471;86;21043;-57
2022/10/11 00:02:38;;;;;;;1.03;0.50;;;;;;;11.77;100.00;99844.07;1665106;86;21747;-59
2022/10/11 00:05:07;;;;;;;1.40;0.73;;;;;;;11.77;100.00;99855.82;1665230;86;21214;-58
2022/10/11 00:07:34;;;;;;;1.03;0.50;;;;;;;11.75;100.00;99854.44;1665642;86;21624;-57
2022/10/11 00:10:02;;;;;;;2.50;1.07;;;;;;;11.75;100.00;99861.77;1638997;86;21704;-57
2022/10/11 00:12:30;;;;;;;1.33;0.60;;;;;;;11.74;100.00;99857.52;1665586;86;20995;-57
2022/10/11 00:14:58;;;;;;;2.57;1.00;;;;;;;11.71;100.00;99852.72;1665150;86;21007;-58
2022/10/11 00:17:26;;;;;;;2.00;0.60;;;;;;;11.69;100.00;99854.72;1665595;86;21192;-57
2022/10/11 00:19:53;;;;;;;2.13;0.73;;;;;;;11.67;100.00;99863.27;1665529;86;21085;-57
2022/10/11 00:22:21;;;;;;;1.93;0.90;;;;;;;11.67;100.00;99863.27;1665368;86;21509;-58
2022/10/11 00:24:48;;;;;;;1.70;0.80;;;;;;;11.68;100.00;99857.03;1665605;86;20987;-59
2022/10/11 00:27:14;;;;;;;2.23;1.10;;;;;;;11.71;100.00;99855.84;1664915;86;21070;-57
2022/10/11 00:29:41;;;;;;;3.10;0.83;;;;;;;11.69;100.00;99853.41;1665536;86;21177;-57
2022/10/11 00:32:08;;;;;;;2.13;0.90;;;;;;;11.67;100.00;99857.54;1665531;86;21414;-57
2022/10/11 00:34:36;;;;;;;1.77;1.00;;;;;;;11.64;100.00;99855.33;1665728;86;20916;-57
2022/10/11 00:37:03;;;;;;;2.23;1.20;;;;;;;11.67;100.00;99860.66;1650968;86;21028;-65
2022/10/11 00:39:30;;;;;;;3.40;0.90;;;;;;;11.70;100.00;99864.15;1651358;86;20948;-56
2022/10/11 00:41:59;;;;;;;1.37;0.77;;;;;;;11.73;100.00;99866.88;1651344;86;21291;-57
2022/10/11 00:44:26;;;;;;;1.70;0.80;;;;;;;11.69;100.00;99862.05;1651381;86;21600;-56
2022/10/11 00:47:04;;;;;;;1.97;0.67;;;;;;;11.72;100.00;99861.36;1651235;86;21740;-57
2022/10/11 00:49:55;;;;;;;1.37;0.77;;;;;;;11.76;100.00;99863.87;1650979;86;21056;-57
2022/10/11 00:52:35;;;;;;;1.22;0.75;;;;;;;11.77;100.00;99868.88;1627045;86;20968;-58
2022/10/11 00:55:10;;;;;;;2.13;0.70;;;;;;;11.76;100.00;99871.20;1650844;86;22655;-58
2022/10/11 00:57:40;;;;;;;2.17;0.80;;;;;;;11.80;100.00;99871.09;1651460;86;21028;-58
2022/10/11 01:00:10;;;;;;;1.80;0.80;;;;;;;11.81;100.00;99872.70;1651242;86;20997;-58
2022/10/11 01:02:37;;;;;;;1.93;0.60;;;;;;;11.84;100.00;99874.94;1651464;86;20937;-57
2022/10/11 01:05:06;;;;;;;1.57;0.83;;;;;;;11.80;100.00;99877.63;1655093;86;21142;-58
2022/10/11 01:07:33;;;;;;;1.40;0.77;;;;;;;11.77;100.00;99875.91;1657540;86;22441;-56
2022/10/11 01:10:00;;;;;;;3.57;1.00;;;;;;;11.80;100.00;99878.13;1657272;86;21517;-56
2022/10/11 01:12:28;;;;;;;2.00;0.70;;;;;;;11.80;100.00;99885.45;1657390;86;21569;-57
2022/10/11 01:15:22;;;;;;;1.77;0.60;;;;;;;11.77;100.00;99879.83;1657260;86;20975;-58
2022/10/11 01:18:07;;;;;;;1.83;0.60;;;;;;;11.76;100.00;99883.45;1657421;86;21023;-57
2022/10/11 01:20:54;;;;;;;2.43;0.83;;;;;;;11.76;100.00;99885.55;1623433;86;21498;-59
2022/10/11 01:24:06;;;;;;;1.80;0.73;;;;;;;11.74;100.00;99881.53;1657457;86;21062;-57
2022/10/11 01:27:24;;;;;;;2.60;0.65;;;;;;;11.65;100.00;99888.76;1656219;86;21102;-57
2022/10/11 01:30:16;;;;;;;1.43;0.67;;;;;;;11.63;100.00;99893.36;1656872;86;21083;-60
2022/10/11 01:32:55;;;;;;;1.10;0.40;;;;;;;11.58;100.00;99890.05;1654699;86;20994;-68
2022/10/11 01:35:42;;;;;;;0.90;0.50;;;;;;;11.58;100.00;99892.66;1658033;86;21162;-60
2022/10/11 01:38:26;;;;;;;1.17;0.50;;;;;;;11.54;100.00;99897.17;1657313;86;20913;-60
2022/10/11 01:41:01;;;;;;;2.20;0.70;;;;;;;11.51;100.00;99887.92;1657544;86;21094;-60
2022/10/11 01:43:28;;;;;;;1.57;0.53;;;;;;;11.47;100.00;99898.45;1657401;86;21356;-60
2022/10/11 01:45:57;;;;;;;2.13;0.77;;;;;;;11.51;100.00;99901.47;1657581;86;21039;-61
2022/10/11 01:48:24;;;;;;;1.23;0.50;;;;;;;11.51;100.00;99900.97;1657092;86;21362;-60
2022/10/11 01:50:57;;;;;;;1.90;0.70;;;;;;;11.47;100.00;99901.06;1657406;86;21034;-59
2022/10/11 01:53:46;;;;;;;0.97;0.43;;;;;;;11.45;100.00;99899.97;1657584;86;20935;-59
2022/10/11 01:56:40;;;;;;;1.20;0.40;;;;;;;11.48;100.00;99899.25;1657238;86;20920;-60
2022/10/11 01:59:28;;;;;;;1.00;0.40;;;;;;;11.48;100.00;99901.86;1657530;86;20964;-61
2022/10/11 02:02:22;;;;;;;1.23;0.40;;;;;;;11.50;100.00;99902.48;1657427;86;21523;-59
2022/10/11 02:04:57;;;;;;;0.90;0.40;;;;;;;11.48;100.00;99904.47;1657610;86;20975;-59
2022/10/11 02:07:50;;;;;;;1.10;0.47;;;;;;;11.48;100.00;99904.47;1656964;86;21027;-61
2022/10/11 02:10:44;;;;;;;0.73;0.43;;;;;;;11.49;100.00;99900.88;1657642;86;21570;-59
2022/10/11 02:13:38;;;;;;;2.20;0.50;;;;;;;11.51;100.00;99908.00;1643802;86;21034;-60
2022/10/11 02:16:11;;;;;;;0.90;0.43;;;;;;;11.49;100.00;99902.19;1656862;86;21732;-63
2022/10/11 02:18:48;;;;;;;1.40;0.50;;;;;;;11.48;100.00;99896.17;1656975;86;21480;-58
2022/10/11 02:21:18;;;;;;;1.80;0.50;;;;;;;11.43;100.00;99908.48;1657262;86;21016;-58
2022/10/11 02:23:59;;;;;;;1.00;0.47;;;;;;;11.39;100.00;99903.86;1657290;86;20996;-58
2022/10/11 02:26:28;;;;;;;1.67;0.70;;;;;;;11.40;100.00;99906.77;1656863;85;22403;-58
2022/10/11 02:28:56;;;;;;;0.70;0.30;;;;;;;11.40;100.00;99910.67;1657414;86;21478;-57
2022/10/11 02:31:23;;;;;;;0.50;0.30;;;;;;;11.41;100.00;99913.61;1638138;86;21007;-57
2022/10/11 02:34:19;;;;;;;1.43;0.60;;;;;;;11.43;100.00;99914.20;1657489;86;21038;-65
2022/10/11 02:37:23;;;;;;;1.37;0.40;;;;;;;11.52;100.00;99912.24;1657292;86;20884;-58
2022/10/11 02:40:14;;;;;;;1.07;0.60;;;;;;;11.49;100.00;99920.46;1657284;86;22082;-57
2022/10/11 02:42:50;;;;;;;1.30;0.50;;;;;;;11.48;100.00;99917.52;1657432;86;21895;-57
2022/10/11 02:45:28;;;;;;;1.90;0.87;;;;;;;11.48;100.00;99906.61;1657081;86;20956;-57
2022/10/11 02:47:55;;;;;;;2.63;0.70;;;;;;;11.41;100.00;99917.02;1657413;86;20992;-57
2022/10/11 02:50:23;;;;;;;1.20;0.40;;;;;;;11.45;100.00;99914.83;1657337;86;21673;-57
2022/10/11 02:52:50;;;;;;;1.90;1.10;;;;;;;11.44;100.00;99921.86;1657322;86;21102;-59
2022/10/11 02:55:18;;;;;;;1.20;0.50;;;;;;;11.48;100.00;99918.83;1656961;86;21260;-58
2022/10/11 02:57:45;;;;;;;1.73;0.73;;;;;;;11.46;100.00;99913.81;1657391;86;21397;-58
2022/10/11 03:00:14;;;;;;;1.20;0.60;;;;;;;11.44;100.00;99913.23;1657523;86;21024;-57
2022/10/11 03:02:42;;;;;;;1.50;0.60;;;;;;;11.40;100.00;99914.59;1657095;86;20993;-58
2022/10/11 03:05:09;;;;;;;1.80;0.57;;;;;;;11.37;100.00;99911.89;1657130;86;21521;-65
2022/10/11 03:07:37;;;;;;;1.83;0.60;;;;;;;11.38;100.00;99913.49;1657444;86;21160;-58
2022/10/11 03:10:07;;;;;;;1.10;0.50;;;;;;;11.38;100.00;99916.11;1657116;86;21588;-59
2022/10/11 03:12:35;;;;;;;1.27;0.53;;;;;;;11.42;100.00;99924.34;1657396;86;21590;-59
2022/10/11 03:15:05;;;;;;;1.10;0.40;;;;;;;11.42;100.00;99928.27;1657440;86;21541;-60
2022/10/11 03:17:33;;;;;;;1.33;0.50;;;;;;;11.41;100.00;99933.98;1656990;86;21645;-60
2022/10/11 03:20:02;;;;;;;0.93;0.43;;;;;;;11.36;100.00;99932.45;1657391;86;21444;-59
2022/10/11 03:22:29;;;;;;;1.40;0.60;;;;;;;11.38;100.00;99931.77;1657218;86;20952;-57
2022/10/11 03:24:56;;;;;;;1.30;0.50;;;;;;;11.38;100.00;99933.57;1657377;86;21770;-57
2022/10/11 03:27:24;;;;;;;1.27;0.50;;;;;;;11.34;100.00;99930.55;1657207;86;21130;-58
2022/10/11 03:29:51;;;;;;;8.83;1.00;;;;;;;11.32;100.00;99930.43;1656773;86;21581;-58
2022/10/11 03:32:19;;;;;;;1.90;0.67;;;;;;;11.29;100.00;99938.17;1657366;86;22177;-59
2022/10/11 03:34:47;;;;;;;3.20;0.60;;;;;;;11.34;100.00;99936.27;1657437;86;20933;-58
2022/10/11 03:37:14;;;;;;;1.40;0.73;;;;;;;11.37;100.00;99943.21;1657497;86;21007;-57
2022/10/11 03:39:44;;;;;;;4.23;0.80;;;;;;;11.34;100.00;99933.16;1657077;86;21544;-60
2022/10/11 03:42:12;;;;;;;1.30;0.70;;;;;;;11.38;100.00;99942.70;1657269;86;21436;-57
2022/10/11 03:44:42;;;;;;;2.40;0.93;;;;;;;11.39;100.00;99939.09;1657589;86;21919;-58
2022/10/11 03:47:09;;;;;;;1.93;0.80;;;;;;;11.38;100.00;99935.68;1657399;86;21654;-58
2022/10/11 03:49:36;;;;;;;2.87;0.77;;;;;;;11.39;100.00;99943.00;1657388;86;20980;-60
2022/10/11 03:52:04;;;;;;;1.23;0.67;;;;;;;11.36;100.00;99945.49;1656874;86;21041;-59
2022/10/11 03:54:31;;;;;;;1.33;0.63;;;;;;;11.27;100.00;99951.89;1657495;86;21042;-58
2022/10/11 03:56:58;;;;;;;1.83;0.93;;;;;;;11.27;100.00;99951.89;1657338;86;21191;-58
2022/10/11 03:59:25;;;;;;;2.00;0.80;;;;;;;11.26;100.00;99950.30;1657240;86;21011;-59
2022/10/11 04:01:52;;;;;;;2.07;0.77;;;;;;;11.29;100.00;99959.05;1657159;86;21562;-62
2022/10/11 04:04:19;;;;;;;3.53;1.10;;;;;;;11.28;100.00;99960.52;1657225;86;20956;-60
2022/10/11 04:06:47;;;;;;;1.13;0.60;;;;;;;11.18;100.00;99959.09;1657054;86;21826;-59
2022/10/11 04:09:13;;;;;;;1.53;0.97;;;;;;;11.14;100.00;99959.68;1657501;86;21131;-59
2022/10/11 04:11:42;;;;;;;1.47;1.00;;;;;;;11.14;100.00;99967.50;1657144;86;21731;-65
2022/10/11 04:14:10;;;;;;;2.67;1.00;;;;;;;11.14;100.00;99967.50;1657258;86;21089;-58
2022/10/11 04:16:37;;;;;;;1.90;1.10;;;;;;;11.11;100.00;99964.78;1657457;86;21114;-58
2022/10/11 04:19:05;;;;;;;2.10;1.20;;;;;;;11.14;100.00;99966.20;1657377;86;21023;-58
2022/10/11 04:21:33;;;;;;;1.70;1.10;;;;;;;11.15;100.00;99966.50;1657315;86;21779;-58
2022/10/11 04:24:01;;;;;;;2.13;1.03;;;;;;;11.16;100.00;99974.62;1656767;86;21511;-59
2022/10/11 04:26:29;;;;;;;3.57;1.40;;;;;;;11.17;100.00;99967.09;1657389;86;22008;-58
2022/10/11 04:28:56;;;;;;;2.87;1.13;;;;;;;11.15;100.00;99973.82;1657273;86;21649;-58
2022/10/11 04:31:23;;;;;;;2.80;1.37;;;;;;;11.18;100.00;99972.14;1657270;86;21723;-59
2022/10/11 04:33:50;;;;;;;3.33;1.37;;;;;;;11.20;100.00;99975.34;1657373;86;21085;-62
2022/10/11 04:36:17;;;;;;;1.87;1.17;;;;;;;11.22;100.00;99972.55;1656760;86;21475;-57
2022/10/11 04:38:44;;;;;;;2.13;1.30;;;;;;;11.24;100.00;99971.84;1657086;86;22190;-58
2022/10/11 04:41:13;;;;;;;2.93;1.47;;;;;;;11.20;100.00;99979.25;1657463;86;21640;-57
2022/10/11 04:43:40;;;;;;;3.07;1.90;;;;;;;11.25;100.00;99976.09;1657333;86;20986;-57
2022/10/11 04:46:08;;;;;;;2.93;1.60;;;;;;;11.33;100.00;99983.75;1656938;86;21171;-60
2022/10/11 04:48:35;;;;;;;2.60;1.27;;;;;;;11.39;100.00;99979.03;1657206;86;21146;-57
2022/10/11 04:51:03;;;;;;;2.60;1.60;;;;;;;11.34;100.00;99982.73;1657355;86;21772;-57
2022/10/11 04:53:30;;;;;;;2.33;1.10;;;;;;;11.33;100.00;99979.83;1657623;86;22365;-57
2022/10/11 04:56:02;;;;;;;3.73;1.33;;;;;;;11.30;100.00;99985.44;1657469;86;20904;-65
2022/10/11 04:58:30;;;;;;;3.37;1.47;;;;;;;11.31;100.00;99990.95;1657365;86;21237;-58
2022/10/11 05:00:57;;;;;;;2.00;0.90;;;;;;;11.32;100.00;99979.50;1657477;86;20916;-60
2022/10/11 05:03:24;;;;;;;1.90;1.17;;;;;;;11.39;100.00;99982.15;1657549;86;21541;-57
2022/10/11 05:05:51;;;;;;;3.37;1.47;;;;;;;11.39;100.00;99983.45;1654578;86;21036;-57
2022/10/11 05:08:19;;;;;;;2.30;1.10;;;;;;;11.39;100.00;99985.56;1650919;86;21533;-58
2022/10/11 05:11:01;;;;;;;1.83;0.97;;;;;;;11.34;100.00;99988.46;1651342;86;21326;-58
2022/10/11 05:13:28;;;;;;;;;;;;;;;11.39;100.00;99995.20;1653890;86;20920;-60
2022/10/11 05:15:55;;;;;;;2.10;1.20;;;;;;;11.44;100.00;99992.83;1651562;86;20158;-59
2022/10/11 05:18:22;;;;;;;2.63;1.17;;;;;;;11.39;100.00;99998.61;1650937;86;21008;-62
2022/10/11 05:21:05;;;;;;;2.27;1.23;;;;;;;11.38;100.00;99998.31;1651451;86;21440;-57
2022/10/11 05:23:33;;;;;;;2.67;1.30;;;;;;;11.42;100.00;100001.34;1651669;86;21544;-57
2022/10/11 05:26:00;;;;;;;2.27;1.13;;;;;;;11.43;100.00;100011.57;1651564;86;20897;-59
2022/10/11 05:28:29;;;;;;;2.00;1.00;;;;;;;11.43;100.00;100011.57;1651020;86;20948;-58
2022/10/11 05:30:56;;;;;;;3.50;1.57;;;;;;;11.40;100.00;100015.90;1651697;86;21905;-58
2022/10/11 05:33:24;;;;;;;2.40;1.30;;;;;;;11.41;100.00;100016.70;1651418;86;21036;-58
2022/10/11 05:35:51;;;;;;;2.33;1.30;;;;;;;11.42;100.00;100015.19;1651456;86;21138;-58
2022/10/11 05:38:19;;;;;;;2.90;1.27;;;;;;;11.50;100.00;100009.50;1651374;86;21012;-62
2022/10/11 05:40:46;;;;;;;2.33;1.27;;;;;;;11.54;100.00;100020.66;1651324;86;21059;-58
2022/10/11 05:43:14;;;;;;;2.63;0.90;;;;;;;11.55;100.00;100024.06;1651800;86;21519;-58
2022/10/11 05:45:42;;;;;;;2.20;0.90;;;;;;;11.54;100.00;100027.69;1651682;86;21075;-58
2022/10/11 05:48:09;;;;;;;3.20;1.60;;;;;;;11.56;100.00;100027.81;1651581;86;21211;-58
2022/10/11 05:50:37;;;;;;;2.07;1.07;;;;;;;11.62;100.00;100023.59;1650891;86;21130;-58
2022/10/11 05:53:04;;;;;;;2.30;0.93;;;;;;;11.64;100.00;100025.02;1651550;86;20956;-58
2022/10/11 05:55:40;;;;;;;2.30;1.20;;;;;;;11.66;100.00;100026.13;1651512;86;21026;-57
2022/10/11 05:58:11;;;;;;;1.90;0.90;;;;;;;11.73;100.00;100026.95;1650912;86;21139;-63
2022/10/11 06:00:38;;;;;;;2.27;1.00;;;;;;;11.74;100.00;100031.16;1627188;86;21420;-57
2022/10/11 06:03:06;;;;;;;2.47;1.10;;;;;;;11.83;100.00;100027.90;1651392;86;21076;-57
2022/10/11 06:05:34;;;;;;;1.83;1.00;;;;;;;11.86;100.00;100032.27;1651617;86;21039;-57
2022/10/11 06:08:02;;;;;;;2.80;0.73;;;;;;;11.86;100.00;100032.77;1651574;86;20948;-58
2022/10/11 06:10:29;;;;;;;1.70;0.80;;;;;;;11.88;100.00;100032.05;1651564;86;20968;-57
2022/10/11 06:12:56;;;;;;;2.07;0.70;;;;;;;11.91;100.00;100035.08;1651527;86;21168;-57
2022/10/11 06:15:23;;;;;;;1.50;0.83;;;;;;;11.90;100.00;100037.39;1651389;86;21011;-57
2022/10/11 06:17:51;;;;;;;1.63;0.90;;;;;;;11.92;100.00;100036.68;1651582;86;20889;-58
2022/10/11 06:20:19;;;;;;;1.23;0.70;;;;;;;12.08;100.00;100034.20;1650812;86;21003;-58
2022/10/11 06:22:46;;;;;;;1.87;0.90;;;;;;;12.23;100.00;100039.76;1651425;86;21412;-58
2022/10/11 06:25:13;;;;;;;3.33;0.50;;;;;;;12.30;100.00;100035.34;1651560;86;22377;-57
2022/10/11 06:27:40;;;;;;;1.90;0.87;;;;;;;12.30;100.00;100037.45;1651391;86;20968;-57
2022/10/11 06:30:09;;;;;;;2.10;0.97;;;;;;;12.35;100.00;100038.98;1651629;86;21476;-59
2022/10/11 06:32:37;;;;;;;2.00;0.80;;;;;;;12.36;100.00;100040.59;1651170;86;20932;-57
2022/10/11 06:35:06;;;;;;;1.63;0.90;;;;;;;12.31;100.00;100041.70;1651506;86;21106;-57
2022/10/11 06:37:33;;;;;;;1.57;0.90;;;;;;;12.34;100.00;100046.51;1651555;86;21360;-57
2022/10/11 06:40:00;;;;;;;1.70;0.97;;;;;;;12.38;100.00;100050.33;1651330;86;21566;-57
2022/10/11 06:42:27;;;;;;;1.43;0.57;;;;;;;12.42;100.00;100045.51;1650942;86;21008;-57
2022/10/11 06:44:54;;;;;;;2.93;0.90;;;;;;;12.36;100.00;100054.97;1651759;86;21518;-57
2022/10/11 06:47:21;;;;;;;2.37;0.77;;;;;;;12.31;100.00;100060.00;1651425;86;20978;-60
2022/10/11 06:49:48;;;;;;;1.43;0.63;;;;;;;12.31;100.00;100063.92;1650994;86;21168;-56
2022/10/11 06:52:15;;;;;;;2.00;0.73;;;;;;;12.31;100.00;100057.86;1651018;86;21007;-58
2022/10/11 06:54:42;;;;;;;1.37;0.60;;;;;;;12.28;100.00;100064.31;1650909;86;20984;-57
2022/10/11 06:57:09;;;;;;;2.70;0.70;;;;;;;12.27;100.00;100061.37;1651456;86;21023;-57
2022/10/11 06:59:36;;;;;;;1.97;0.73;;;;;;;12.27;100.00;100069.21;1651584;86;20965;-58
2022/10/11 07:02:03;;;;;;;1.77;0.90;;;;;;;12.28;100.00;100063.51;1651350;86;21169;-63
2022/10/11 07:04:32;;;;;;;2.07;0.90;;;;;;;12.29;100.00;100073.75;1651105;86;20964;-57
2022/10/11 07:06:59;;;;;;;1.30;0.63;;;;;;;12.30;100.00;100075.35;1651459;86;21101;-57
2022/10/11 07:09:26;;;;;;;1.63;0.70;;;;;;;12.26;100.00;100078.06;1651378;86;20996;-59
2022/10/11 07:11:54;;;;;;;1.70;0.90;;;;;;;12.25;100.00;100076.46;1651286;86;21012;-57
2022/10/11 07:14:21;;;;;;;2.80;0.67;;;;;;;12.26;100.00;100078.57;1650706;86;21148;-58
2022/10/11 07:16:48;;;;;;;1.30;0.70;;;;;;;12.21;100.00;100080.47;1651570;86;21516;-56
2022/10/11 07:19:15;;;;;;;1.17;0.60;;;;;;;12.23;100.00;100075.04;1651367;86;21074;-56
2022/10/11 07:21:43;;;;;;;1.20;0.70;;;;;;;12.25;100.00;100080.38;1651327;86;21529;-57
2022/10/11 07:24:10;;;;;;;1.33;0.80;;;;;;;12.24;100.00;100078.78;1651350;86;20905;-60
2022/10/11 07:26:37;;;;;;;1.70;0.80;;;;;;;12.25;100.00;100078.27;1651223;86;21102;-56
2022/10/11 07:29:05;;;;;;;2.13;0.90;;;;;;;12.26;100.00;100078.57;1651402;86;21051;-56
2022/10/11 07:31:33;;;;;;;1.87;0.97;;;;;;;12.23;100.00;100081.06;1651459;86;20952;-56
2022/10/11 07:33:59;;;;;;;2.33;0.80;;;;;;;12.31;100.00;100081.38;1651436;86;21107;-57
2022/10/11 07:36:27;;;;;;;2.77;1.00;;;;;;;12.37;100.00;100084.52;1651095;86;21011;-65
2022/10/11 07:38:54;;;;;;;3.30;1.20;;;;;;;12.38;100.00;100071.24;1651299;86;21248;-57
2022/10/11 07:41:21;;;;;;;2.70;1.00;;;;;;;12.39;100.00;100084.63;1651412;86;21020;-56
2022/10/11 07:43:49;;;;;;;2.23;1.00;;;;;;;12.48;100.00;100084.44;1651310;86;21003;-56
2022/10/11 07:46:17;;;;;;;2.63;1.67;;;;;;;12.53;100.00;100097.20;1651052;86;20944;-57
2022/10/11 07:48:45;;;;;;;3.73;1.03;;;;;;;12.58;100.00;100090.89;1650903;86;20941;-57
2022/10/11 07:51:16;;;;;;;3.03;1.20;;;;;;;12.66;100.00;100092.00;1651629;86;21818;-56
2022/10/11 07:53:45;;;;;;;2.83;1.67;;;;;;;12.71;100.00;100094.01;1651387;86;21558;-58
2022/10/11 07:56:15;;;;;;;2.80;1.63;;;;;;;12.78;100.00;100094.81;1651470;86;21055;-57
2022/10/11 07:58:42;;;;;;;2.63;1.40;;;;;;;12.77;100.00;100096.34;1651062;86;20968;-58
2022/10/11 08:01:09;;;;;;;2.33;1.40;;;;;;;12.82;100.00;100092.10;1651213;86;21345;-56
2022/10/11 08:03:37;;;;;;;2.60;1.40;;;;;;;12.77;100.00;100102.38;1651451;86;21359;-56
2022/10/11 08:06:08;;;;;;;4.50;1.53;;;;;;;12.76;100.00;100101.25;1651673;86;21020;-56
2022/10/11 08:08:35;;;;;;;5.87;1.80;;;;;;;12.76;100.00;100104.66;1656909;86;20964;-57
2022/10/11 08:11:03;;;;;;;4.13;1.93;;;;;;;12.77;100.00;100104.98;1657347;86;22025;-56
2022/10/11 08:13:31;;;;;;;4.07;1.93;;;;;;;12.75;100.00;100103.06;1656761;86;21000;-56
2022/10/11 08:15:58;;;;;;;2.97;1.97;;;;;;;12.75;100.00;100106.19;1657471;86;21565;-55
2022/10/11 08:18:25;;;;;;;4.23;2.17;;;;;;;12.70;100.00;100117.25;1657379;86;22281;-55
2022/10/11 08:20:52;;;;;;;4.00;2.10;;;;;;;12.66;100.00;100119.97;1656487;86;20995;-55
2022/10/11 08:23:19;;;;;;;6.63;1.83;;;;;;;12.63;100.00;100119.05;1657389;86;21038;-55
2022/10/11 08:25:47;;;;;;;3.60;1.87;;;;;;;12.64;100.00;100116.73;1657465;86;21513;-55
2022/10/11 08:28:16;;;;;;;4.63;1.53;;;;;;;12.61;100.00;100123.19;1657210;86;21077;-55
2022/10/11 08:30:51;;;;;;;3.30;1.77;;;;;;;12.64;100.00;100129.81;1656707;86;20999;-56
2022/10/11 08:33:18;;;;;;;5.90;2.20;;;;;;;12.63;100.00;100134.74;1657143;86;21102;-55
2022/10/11 08:35:46;;;;;;;4.83;1.97;;;;;;;12.63;100.00;100126.89;1657383;86;20971;-55
2022/10/11 08:38:13;;;;;;;4.67;2.00;;;;;;;12.66;100.00;100131.23;1657109;86;21062;-55
2022/10/11 08:40:49;;;;;;;3.90;2.27;;;;;;;12.67;100.00;100129.41;1656669;86;21250;-55
2022/10/11 08:43:34;;;;;;;3.63;2.30;;;;;;;12.62;100.00;100132.63;1657023;86;21019;-55
2022/10/11 08:46:01;;;;;;;3.90;1.80;;;;;;;12.55;100.00;100146.70;1657009;86;20964;-57
2022/10/11 08:48:44;;;;;;;3.70;1.97;;;;;;;12.55;100.00;100140.16;1657071;86;21116;-55
2022/10/11 08:51:24;;;;;;;4.40;2.10;;;;;;;12.55;100.00;100145.39;1657470;86;20967;-55
2022/10/11 08:53:57;;;;;;;3.30;2.00;;;;;;;12.54;100.00;100145.06;1657028;86;21914;-55
2022/10/11 08:56:24;;;;;;;3.33;2.03;;;;;;;12.54;100.00;100148.52;1657199;86;20917;-55
2022/10/11 08:59:13;;;;;;;3.53;2.00;;;;;;;12.54;100.00;100141.14;1657357;86;20992;-55
2022/10/11 09:01:50;;;;;;;5.03;2.80;;;;;;;12.56;100.00;100146.48;1657209;86;21521;-55
2022/10/11 09:04:18;;;;;;;5.23;2.90;;;;;;;12.60;100.00;100154.23;1657533;86;21020;-55
2022/10/11 09:06:58;;;;;;;3.53;2.60;;;;;;;12.59;100.00;100160.98;1657242;86;20909;-55
2022/10/11 09:09:56;;;;;;;6.63;2.80;;;;;;;12.62;100.00;100154.06;1646515;86;21651;-55
2022/10/11 09:12:41;;;;;;;4.23;2.53;;;;;;;12.65;100.00;100153.64;1657066;86;21169;-56
2022/10/11 09:15:13;;;;;;;3.97;2.43;;;;;;;12.64;100.00;100166.42;1657264;86;21070;-57
2022/10/11 09:18:09;;;;;;;3.47;2.10;;;;;;;12.62;100.00;100164.02;1656760;86;20944;-55
2022/10/11 09:20:44;;;;;;;3.57;2.17;;;;;;;12.61;100.00;100170.73;1657176;86;21207;-55
2022/10/11 09:23:41;;;;;;;4.10;2.60;;;;;;;12.57;100.00;100166.40;1632530;86;21107;-55
2022/10/11 09:26:30;;;;;;;4.70;2.10;;;;;;;12.60;100.00;100173.85;1657408;86;21602;-57
2022/10/11 09:29:08;;;;;;;3.80;2.93;;;;;;;12.55;100.00;100170.23;1657361;86;21166;-55
2022/10/11 09:31:36;;;;;;;5.03;2.60;;;;;;;12.50;100.00;100172.61;1657184;86;21064;-56
2022/10/11 09:34:11;;;;;;;4.20;2.10;;;;;;;12.49;100.00;100174.94;1657199;86;21444;-56
2022/10/11 09:37:06;;;;;;;4.83;1.93;;;;;;;12.44;100.00;100164.27;1657319;86;21435;-57
2022/10/11 09:39:35;;;;;;;4.50;2.47;;;;;;;12.38;100.00;100173.19;1657477;86;21935;-57
2022/10/11 09:42:07;;;;;;;5.27;2.70;;;;;;;12.35;100.00;100175.38;1657396;86;20956;-57
2022/10/11 09:44:41;;;;;;;4.37;2.60;;;;;;;12.33;100.00;100180.82;1657297;86;21083;-56
2022/10/11 09:47:16;;;;;;;4.90;2.93;;;;;;;12.30;100.00;100172.06;1655571;86;20956;-59
2022/10/11 09:50:05;;;;;;;4.43;2.60;;;;;;;12.30;100.00;100166.83;1656904;86;21034;-57
2022/10/11 09:52:33;;;;;;;3.77;2.40;;;;;;;12.38;100.00;100174.49;1657176;86;21529;-59
2022/10/11 09:55:01;;;;;;;3.80;2.37;;;;;;;12.45;100.00;100182.36;1657377;86;21081;-57
2022/10/11 09:57:33;;;;;;;3.47;2.33;;;;;;;12.47;100.00;100176.45;1657393;86;20936;-57
2022/10/11 10:00:24;;;;;;;5.03;2.53;;;;;;;12.46;100.00;100180.55;1657319;86;21264;-57
2022/10/11 10:02:55;;;;;;;4.80;2.22;;;;;;;12.44;100.00;100179.45;1656681;86;21098;-57
2022/10/11 10:05:30;;;;;;;4.10;2.40;;;;;;;12.48;100.00;100187.70;1656826;86;20924;-57
2022/10/11 10:08:07;;;;;;;5.47;2.53;;;;;;;12.49;100.00;100186.70;1653968;86;21028;-58
2022/10/11 10:10:44;;;;;;;3.70;2.20;;;;;;;12.51;100.00;100185.51;1651208;86;21628;-57
2022/10/11 10:13:39;;;;;;;5.13;2.67;;;;;;;12.54;100.00;100193.44;1651417;86;21275;-58
2022/10/11 10:16:22;;;;;;;6.70;3.00;;;;;;;12.53;100.00;100190.02;1651258;86;20920;-57
2022/10/11 10:18:56;;;;;;;4.63;3.23;;;;;;;12.51;100.00;100198.58;1629900;86;21004;-57
2022/10/11 10:21:34;;;;;;;4.70;2.77;;;;;;;12.48;100.00;100198.97;1650653;86;21044;-58
2022/10/11 10:24:05;;;;;;;5.10;3.07;;;;;;;12.49;100.00;100190.62;1651381;86;20995;-57
2022/10/11 10:26:32;;;;;;;4.42;2.72;;;;;;;12.45;100.00;100196.73;1651045;86;21297;-57
2022/10/11 10:29:11;;;;;;;5.73;2.93;;;;;;;12.42;100.00;100197.13;1651451;86;20945;-57
2022/10/11 10:31:41;;;;;;;4.63;2.50;;;;;;;12.41;100.00;100205.98;1650895;86;21070;-57
2022/10/11 10:34:20;;;;;;;5.00;2.83;;;;;;;12.45;100.00;100199.86;1649536;86;20948;-57
2022/10/11 10:36:54;;;;;;;4.33;2.77;;;;;;;12.49;100.00;100205.00;1651081;86;21023;-57
2022/10/11 10:39:42;;;;;;;5.37;2.83;;;;;;;12.46;100.00;100204.08;1650052;86;21171;-59
2022/10/11 10:42:15;;;;;;;4.67;2.50;;;;;;;12.47;100.00;100202.59;1651458;86;20932;-57
2022/10/11 10:44:45;;;;;;;4.27;2.47;;;;;;;12.52;100.00;100204.11;1651485;86;20936;-57
2022/10/11 10:47:40;;;;;;;4.97;2.53;;;;;;;12.55;100.00;100208.15;1650968;86;20928;-67
2022/10/11 10:50:24;;;;;;;6.17;2.23;;;;;;;12.59;100.00;100208.86;1651305;86;21082;-58
2022/10/11 10:53:24;;;;;;;4.07;2.60;;;;;;;12.57;100.00;100213.97;1651528;86;21321;-57
2022/10/11 10:56:11;;;;;;;5.90;2.83;;;;;;;12.64;100.00;100213.48;1651090;86;20967;-63
2022/10/11 10:59:18;;;;;;;3.80;2.60;;;;;;;12.65;100.00;100209.39;1651505;86;20976;-57
2022/10/11 11:01:56;;;;;;;4.60;2.60;;;;;;;12.64;100.00;100214.30;1651497;86;21910;-57
2022/10/11 11:04:30;;;;;;;4.63;2.90;;;;;;;12.68;100.00;100213.40;1651091;86;21030;-57
2022/10/11 11:07:12;;;;;;;4.23;2.80;;;;;;;12.60;100.00;100217.00;1650742;86;22199;-61
2022/10/11 11:10:03;;;;;;;;;;;;;;;12.53;100.00;100222.70;1646554;87;21027;-58
2022/10/11 11:13:00;;;;;;;7.00;2.20;;;;;;;12.51;100.00;100212.16;1646619;87;20135;-56
2022/10/11 11:16:01;;;;;;;5.87;2.80;;;;;;;12.45;100.00;100216.85;1646733;87;20981;-58
2022/10/11 11:18:47;;;;;;;4.80;2.17;;;;;;;12.43;100.00;100217.56;1647050;87;20948;-57
2022/10/11 11:21:38;;;;;;;4.77;2.40;;;;;;;12.41;100.00;100223.77;1646481;87;21300;-61
2022/10/11 11:24:20;;;;;;;5.77;2.77;;;;;;;12.38;100.00;100231.20;1623444;87;20977;-57
2022/10/11 11:26:54;;;;;;;3.63;2.50;;;;;;;12.31;100.00;100237.73;1646361;87;21788;-66
2022/10/11 11:29:55;;;;;;;3.53;2.40;;;;;;;12.26;100.00;100240.60;1646718;87;21416;-57
2022/10/11 11:33:00;;;;;;;4.47;2.63;;;;;;;12.24;100.00;100248.65;1646493;87;21044;-58
2022/10/11 11:35:42;;;;;;;4.83;2.63;;;;;;;12.23;100.00;100248.33;1611451;87;21165;-57
2022/10/11 11:38:15;;;;;;;;;;;;;;;12.14;100.00;100250.80;1649343;87;21608;-57
2022/10/11 11:40:47;;;;;;;4.37;2.83;;;;;;;12.13;100.00;100246.59;1647076;87;20119;-56
2022/10/11 11:43:22;;;;;;;4.50;2.87;;;;;;;12.09;100.00;100250.08;1647034;87;20961;-56
2022/10/11 11:45:57;;;;;;;4.27;2.87;;;;;;;12.08;100.00;100258.89;1646413;87;20996;-56
2022/10/11 11:48:25;;;;;;;5.87;2.60;;;;;;;12.10;100.00;100256.11;1647015;87;21231;-56